BYU, Utah
Current Conditions -  °F | °C
As of 2:57 PM on Monday 20 Oct 2014 (Local Time) from KPVU Reporting Station
Few Clouds Few Clouds  
Wind Chill: 73°   Ceiling: Unl
Heat Index: 73°   Visibility: 15mi
Dew Point: 39°   Wind: 0mph
Humidity: 29%   Direction: NA
Pressure: 30"   Gusts: NA
Location:  40.2486°N, 111.647°W
Report Text: KPVU 202057Z 00000KT 15SM FEW090 FEW120 23/04 A3000
Loading
Personal Weather Stations






























Interactive Weather Map
Tropical Storm Tracking
New forecast layout! Learn more

10-Day Weather Forecast

Advertisements
Track Severe Weather on mobile